sensor_id;sensor_type;location;lat;lon;timestamp;temperature;humidity
12268;DHT22;6196;48.398;11.736;2024-03-02T00:02:15;7.70;99.90
12268;DHT22;6196;48.398;11.736;2024-03-02T00:04:45;7.80;99.90
12268;DHT22;6196;48.398;11.736;2024-03-02T00:07:14;7.70;99.90
12268;DHT22;6196;48.398;11.736;2024-03-02T00:09:41;7.60;99.90
12268;DHT22;6196;48.398;11.736;2024-03-02T00:12:11;7.70;99.90
12268;DHT22;6196;48.398;11.736;2024-03-02T00:14:42;7.70;99.90
12268;DHT22;6196;48.398;11.736;2024-03-02T00:17:21;7.70;99.90
12268;DHT22;6196;48.398;11.736;2024-03-02T00:19:51;7.70;99.90
12268;DHT22;6196;48.398;11.736;2024-03-02T00:22:19;7.70;99.90
12268;DHT22;6196;48.398;11.736;2024-03-02T00:24:46;7.70;99.90
12268;DHT22;6196;48.398;11.736;2024-03-02T00:27:14;7.70;99.90
12268;DHT22;6196;48.398;11.736;2024-03-02T00:29:41;7.70;99.90
12268;DHT22;6196;48.398;11.736;2024-03-02T00:32:13;7.70;99.90
12268;DHT22;6196;48.398;11.736;2024-03-02T00:34:40;7.50;99.90
12268;DHT22;6196;48.398;11.736;2024-03-02T00:37:07;7.70;99.90
12268;DHT22;6196;48.398;11.736;2024-03-02T00:39:34;7.70;99.90
12268;DHT22;6196;48.398;11.736;2024-03-02T00:42:02;7.50;99.90
12268;DHT22;6196;48.398;11.736;2024-03-02T00:44:29;7.60;99.90
12268;DHT22;6196;48.398;11.736;2024-03-02T00:47:01;7.60;99.90
12268;DHT22;6196;48.398;11.736;2024-03-02T00:49:28;7.60;99.90
12268;DHT22;6196;48.398;11.736;2024-03-02T00:51:55;7.60;99.90
12268;DHT22;6196;48.398;11.736;2024-03-02T00:54:25;7.60;99.90
12268;DHT22;6196;48.398;11.736;2024-03-02T00:56:53;7.60;99.90
12268;DHT22;6196;48.398;11.736;2024-03-02T00:59:23;7.60;99.90
12268;DHT22;6196;48.398;11.736;2024-03-02T01:01:50;7.60;99.90
12268;DHT22;6196;48.398;11.736;2024-03-02T01:04:18;7.50;99.90
12268;DHT22;6196;48.398;11.736;2024-03-02T01:06:45;7.50;99.90
12268;DHT22;6196;48.398;11.736;2024-03-02T01:09:12;7.60;99.90
12268;DHT22;6196;48.398;11.736;2024-03-02T01:11:39;7.60;99.90
12268;DHT22;6196;48.398;11.736;2024-03-02T01:14:06;7.60;99.90
12268;DHT22;6196;48.398;11.736;2024-03-02T01:16:33;7.50;99.90
12268;DHT22;6196;48.398;11.736;2024-03-02T01:19:00;7.50;99.90
12268;DHT22;6196;48.398;11.736;2024-03-02T01:21:27;7.50;99.90
12268;DHT22;6196;48.398;11.736;2024-03-02T01:23:54;7.50;99.90
12268;DHT22;6196;48.398;11.736;2024-03-02T01:26:21;7.50;99.90
12268;DHT22;6196;48.398;11.736;2024-03-02T01:28:48;7.60;99.90
12268;DHT22;6196;48.398;11.736;2024-03-02T01:31:15;7.60;99.90
12268;DHT22;6196;48.398;11.736;2024-03-02T01:33:42;7.50;99.90
12268;DHT22;6196;48.398;11.736;2024-03-02T01:36:09;7.40;99.90
12268;DHT22;6196;48.398;11.736;2024-03-02T01:38:36;7.50;99.90
12268;DHT22;6196;48.398;11.736;2024-03-02T01:41:03;7.50;99.90
12268;DHT22;6196;48.398;11.736;2024-03-02T01:43:30;7.50;99.90
12268;DHT22;6196;48.398;11.736;2024-03-02T01:45:57;7.40;99.90
12268;DHT22;6196;48.398;11.736;2024-03-02T01:48:24;7.40;99.90
12268;DHT22;6196;48.398;11.736;2024-03-02T01:50:51;7.40;99.90
12268;DHT22;6196;48.398;11.736;2024-03-02T01:53:18;7.40;99.90
12268;DHT22;6196;48.398;11.736;2024-03-02T01:55:45;7.30;99.90
12268;DHT22;6196;48.398;11.736;2024-03-02T01:58:13;7.20;99.90
12268;DHT22;6196;48.398;11.736;2024-03-02T02:00:40;7.40;99.90
12268;DHT22;6196;48.398;11.736;2024-03-02T02:03:07;7.30;99.90
12268;DHT22;6196;48.398;11.736;2024-03-02T02:05:34;7.30;99.90
12268;DHT22;6196;48.398;11.736;2024-03-02T02:08:02;7.30;99.90
12268;DHT22;6196;48.398;11.736;2024-03-02T02:10:29;7.30;99.90
12268;DHT22;6196;48.398;11.736;2024-03-02T02:12:56;7.40;99.90
12268;DHT22;6196;48.398;11.736;2024-03-02T02:15:30;7.40;99.90
12268;DHT22;6196;48.398;11.736;2024-03-02T02:17:58;7.40;99.90
12268;DHT22;6196;48.398;11.736;2024-03-02T02:20:26;7.30;99.90
12268;DHT22;6196;48.398;11.736;2024-03-02T02:23:03;7.30;99.90
12268;DHT22;6196;48.398;11.736;2024-03-02T02:25:32;7.20;99.90
12268;DHT22;6196;48.398;11.736;2024-03-02T02:27:59;7.20;99.90
12268;DHT22;6196;48.398;11.736;2024-03-02T02:30:28;7.20;99.90
12268;DHT22;6196;48.398;11.736;2024-03-02T02:32:56;7.20;99.90
12268;DHT22;6196;48.398;11.736;2024-03-02T02:35:24;7.20;99.90
12268;DHT22;6196;48.398;11.736;2024-03-02T02:37:52;7.20;99.90
12268;DHT22;6196;48.398;11.736;2024-03-02T02:40:21;7.10;99.90
12268;DHT22;6196;48.398;11.736;2024-03-02T02:42:48;7.20;99.90
12268;DHT22;6196;48.398;11.736;2024-03-02T02:45:15;7.20;99.90
12268;DHT22;6196;48.398;11.736;2024-03-02T02:47:43;7.10;99.90
12268;DHT22;6196;48.398;11.736;2024-03-02T02:50:12;7.10;99.90
12268;DHT22;6196;48.398;11.736;2024-03-02T02:52:40;7.10;99.90
12268;DHT22;6196;48.398;11.736;2024-03-02T02:55:10;7.00;99.90
12268;DHT22;6196;48.398;11.736;2024-03-02T02:57:40;7.00;99.90
12268;DHT22;6196;48.398;11.736;2024-03-02T03:00:11;7.00;99.90
12268;DHT22;6196;48.398;11.736;2024-03-02T03:02:45;6.90;99.90
12268;DHT22;6196;48.398;11.736;2024-03-02T03:05:15;6.90;99.90
12268;DHT22;6196;48.398;11.736;2024-03-02T03:07:42;7.00;99.90
12268;DHT22;6196;48.398;11.736;2024-03-02T03:10:11;7.00;99.90
12268;DHT22;6196;48.398;11.736;2024-03-02T03:12:38;6.90;99.90
12268;DHT22;6196;48.398;11.736;2024-03-02T03:15:05;6.90;99.90
12268;DHT22;6196;48.398;11.736;2024-03-02T03:17:34;7.00;99.90
12268;DHT22;6196;48.398;11.736;2024-03-02T03:20:01;7.00;99.90
12268;DHT22;6196;48.398;11.736;2024-03-02T03:22:30;7.00;99.90
12268;DHT22;6196;48.398;11.736;2024-03-02T03:24:58;7.00;99.90
12268;DHT22;6196;48.398;11.736;2024-03-02T03:27:26;7.00;99.90
12268;DHT22;6196;48.398;11.736;2024-03-02T03:29:53;7.00;99.90
12268;DHT22;6196;48.398;11.736;2024-03-02T03:32:21;6.90;99.90
12268;DHT22;6196;48.398;11.736;2024-03-02T03:34:48;6.90;99.90
12268;DHT22;6196;48.398;11.736;2024-03-02T03:37:15;6.90;99.90
12268;DHT22;6196;48.398;11.736;2024-03-02T03:39:42;6.90;99.90
12268;DHT22;6196;48.398;11.736;2024-03-02T03:42:09;6.90;99.90
12268;DHT22;6196;48.398;11.736;2024-03-02T03:44:36;7.00;99.90
12268;DHT22;6196;48.398;11.736;2024-03-02T03:47:03;7.00;99.90
12268;DHT22;6196;48.398;11.736;2024-03-02T03:49:30;7.00;99.90
12268;DHT22;6196;48.398;11.736;2024-03-02T03:51:57;7.10;99.90
12268;DHT22;6196;48.398;11.736;2024-03-02T03:54:24;7.00;99.90
12268;DHT22;6196;48.398;11.736;2024-03-02T03:56:51;7.00;99.90
12268;DHT22;6196;48.398;11.736;2024-03-02T03:59:18;7.10;99.90
12268;DHT22;6196;48.398;11.736;2024-03-02T04:01:45;7.00;99.90
12268;DHT22;6196;48.398;11.736;2024-03-02T04:04:12;7.00;99.90
12268;DHT22;6196;48.398;11.736;2024-03-02T04:06:39;6.90;99.90
12268;DHT22;6196;48.398;11.736;2024-03-02T04:09:06;6.90;99.90
12268;DHT22;6196;48.398;11.736;2024-03-02T04:11:33;6.90;99.90
12268;DHT22;6196;48.398;11.736;2024-03-02T04:14:00;6.90;99.90
12268;DHT22;6196;48.398;11.736;2024-03-02T04:16:27;6.90;99.90
12268;DHT22;6196;48.398;11.736;2024-03-02T04:18:55;6.80;99.90
12268;DHT22;6196;48.398;11.736;2024-03-02T04:21:22;6.90;99.90
12268;DHT22;6196;48.398;11.736;2024-03-02T04:23:49;6.80;99.90
12268;DHT22;6196;48.398;11.736;2024-03-02T04:26:16;6.90;99.90
12268;DHT22;6196;48.398;11.736;2024-03-02T04:28:48;6.90;99.90
12268;DHT22;6196;48.398;11.736;2024-03-02T04:31:15;6.90;99.90
12268;DHT22;6196;48.398;11.736;2024-03-02T04:33:43;6.80;99.90
12268;DHT22;6196;48.398;11.736;2024-03-02T04:36:10;6.80;99.90
12268;DHT22;6196;48.398;11.736;2024-03-02T04:38:38;6.80;99.90
12268;DHT22;6196;48.398;11.736;2024-03-02T04:41:06;6.80;99.90
12268;DHT22;6196;48.398;11.736;2024-03-02T04:43:33;6.80;99.90
12268;DHT22;6196;48.398;11.736;2024-03-02T04:46:01;6.80;99.90
12268;DHT22;6196;48.398;11.736;2024-03-02T04:48:28;6.80;99.90
12268;DHT22;6196;48.398;11.736;2024-03-02T04:50:55;6.80;99.90
12268;DHT22;6196;48.398;11.736;2024-03-02T04:53:22;6.80;99.90
12268;DHT22;6196;48.398;11.736;2024-03-02T04:55:49;6.90;99.90
12268;DHT22;6196;48.398;11.736;2024-03-02T04:58:38;6.80;99.90
12268;DHT22;6196;48.398;11.736;2024-03-02T05:01:05;6.80;99.90
12268;DHT22;6196;48.398;11.736;2024-03-02T05:03:32;6.70;99.90
12268;DHT22;6196;48.398;11.736;2024-03-02T05:06:01;6.70;99.90
12268;DHT22;6196;48.398;11.736;2024-03-02T05:08:28;6.80;99.90
12268;DHT22;6196;48.398;11.736;2024-03-02T05:10:55;6.70;99.90
12268;DHT22;6196;48.398;11.736;2024-03-02T05:13:42;6.80;99.90
12268;DHT22;6196;48.398;11.736;2024-03-02T05:16:09;6.80;99.90
12268;DHT22;6196;48.398;11.736;2024-03-02T05:18:37;6.80;99.90
12268;DHT22;6196;48.398;11.736;2024-03-02T05:21:05;6.70;99.90
12268;DHT22;6196;48.398;11.736;2024-03-02T05:23:32;6.70;99.90
12268;DHT22;6196;48.398;11.736;2024-03-02T05:25:59;6.70;99.90
12268;DHT22;6196;48.398;11.736;2024-03-02T05:28:26;6.70;99.90
12268;DHT22;6196;48.398;11.736;2024-03-02T05:30:53;6.70;99.90
12268;DHT22;6196;48.398;11.736;2024-03-02T05:33:20;6.70;99.90
12268;DHT22;6196;48.398;11.736;2024-03-02T05:35:49;6.70;99.90
12268;DHT22;6196;48.398;11.736;2024-03-02T05:38:19;6.70;99.90
12268;DHT22;6196;48.398;11.736;2024-03-02T05:40:46;6.70;99.90
12268;DHT22;6196;48.398;11.736;2024-03-02T05:43:12;6.70;99.90
12268;DHT22;6196;48.398;11.736;2024-03-02T05:45:39;6.60;99.90
12268;DHT22;6196;48.398;11.736;2024-03-02T05:48:07;6.70;99.90
12268;DHT22;6196;48.398;11.736;2024-03-02T05:50:35;6.70;99.90
12268;DHT22;6196;48.398;11.736;2024-03-02T05:53:02;6.60;99.90
12268;DHT22;6196;48.398;11.736;2024-03-02T05:55:29;6.70;99.90
12268;DHT22;6196;48.398;11.736;2024-03-02T05:57:56;6.70;99.90
12268;DHT22;6196;48.398;11.736;2024-03-02T06:00:39;6.80;99.90
12268;DHT22;6196;48.398;11.736;2024-03-02T06:03:06;6.70;99.90
12268;DHT22;6196;48.398;11.736;2024-03-02T06:05:34;6.80;99.90
12268;DHT22;6196;48.398;11.736;2024-03-02T06:08:01;6.80;99.90
12268;DHT22;6196;48.398;11.736;2024-03-02T06:10:28;6.80;99.90
12268;DHT22;6196;48.398;11.736;2024-03-02T06:12:55;6.80;99.90
12268;DHT22;6196;48.398;11.736;2024-03-02T06:15:22;6.80;99.90
12268;DHT22;6196;48.398;11.736;2024-03-02T06:17:49;6.90;99.90
12268;DHT22;6196;48.398;11.736;2024-03-02T06:20:16;6.70;99.90
12268;DHT22;6196;48.398;11.736;2024-03-02T06:22:43;6.90;99.90
12268;DHT22;6196;48.398;11.736;2024-03-02T06:25:10;6.90;99.90
12268;DHT22;6196;48.398;11.736;2024-03-02T06:27:37;6.90;99.90
12268;DHT22;6196;48.398;11.736;2024-03-02T06:30:04;7.00;99.90
12268;DHT22;6196;48.398;11.736;2024-03-02T06:32:31;6.90;99.90
12268;DHT22;6196;48.398;11.736;2024-03-02T06:34:58;7.00;99.90
12268;DHT22;6196;48.398;11.736;2024-03-02T06:37:26;7.00;99.90
12268;DHT22;6196;48.398;11.736;2024-03-02T06:39:53;7.00;99.90
12268;DHT22;6196;48.398;11.736;2024-03-02T06:42:20;7.00;99.90
12268;DHT22;6196;48.398;11.736;2024-03-02T06:44:47;7.00;99.90
12268;DHT22;6196;48.398;11.736;2024-03-02T06:47:14;7.10;99.90
12268;DHT22;6196;48.398;11.736;2024-03-02T06:49:43;7.10;99.90
12268;DHT22;6196;48.398;11.736;2024-03-02T06:52:10;7.10;99.90
12268;DHT22;6196;48.398;11.736;2024-03-02T06:54:37;7.20;99.90
12268;DHT22;6196;48.398;11.736;2024-03-02T06:57:04;7.20;99.90
12268;DHT22;6196;48.398;11.736;2024-03-02T06:59:30;7.30;99.90
12268;DHT22;6196;48.398;11.736;2024-03-02T07:01:57;7.30;99.90
12268;DHT22;6196;48.398;11.736;2024-03-02T07:04:24;7.20;99.90
12268;DHT22;6196;48.398;11.736;2024-03-02T07:06:51;7.40;99.90
12268;DHT22;6196;48.398;11.736;2024-03-02T07:09:18;7.30;99.90
12268;DHT22;6196;48.398;11.736;2024-03-02T07:11:49;7.40;99.90
12268;DHT22;6196;48.398;11.736;2024-03-02T07:14:18;7.50;99.90
12268;DHT22;6196;48.398;11.736;2024-03-02T07:16:44;7.50;99.90
12268;DHT22;6196;48.398;11.736;2024-03-02T07:19:11;7.60;99.90
12268;DHT22;6196;48.398;11.736;2024-03-02T07:21:38;7.60;99.90
12268;DHT22;6196;48.398;11.736;2024-03-02T07:24:06;7.60;99.90
12268;DHT22;6196;48.398;11.736;2024-03-02T07:26:35;7.80;99.90
12268;DHT22;6196;48.398;11.736;2024-03-02T07:29:05;8.10;99.90
12268;DHT22;6196;48.398;11.736;2024-03-02T07:31:32;8.40;99.90
12268;DHT22;6196;48.398;11.736;2024-03-02T07:33:59;8.70;99.90
12268;DHT22;6196;48.398;11.736;2024-03-02T07:36:26;9.00;99.90
12268;DHT22;6196;48.398;11.736;2024-03-02T07:38:53;9.20;99.90
12268;DHT22;6196;48.398;11.736;2024-03-02T07:41:21;9.50;99.90
12268;DHT22;6196;48.398;11.736;2024-03-02T07:43:48;9.70;99.90
12268;DHT22;6196;48.398;11.736;2024-03-02T07:46:15;9.90;99.90
12268;DHT22;6196;48.398;11.736;2024-03-02T07:48:42;10.20;99.90
12268;DHT22;6196;48.398;11.736;2024-03-02T07:51:09;10.40;99.90
12268;DHT22;6196;48.398;11.736;2024-03-02T07:53:36;10.60;99.90
12268;DHT22;6196;48.398;11.736;2024-03-02T07:56:03;10.80;99.90
12268;DHT22;6196;48.398;11.736;2024-03-02T07:58:30;10.70;99.90
12268;DHT22;6196;48.398;11.736;2024-03-02T08:00:58;10.70;99.90
12268;DHT22;6196;48.398;11.736;2024-03-02T08:03:27;10.60;99.90
12268;DHT22;6196;48.398;11.736;2024-03-02T08:05:54;10.30;99.90
12268;DHT22;6196;48.398;11.736;2024-03-02T08:08:21;10.10;99.90
12268;DHT22;6196;48.398;11.736;2024-03-02T08:10:48;10.10;99.90
12268;DHT22;6196;48.398;11.736;2024-03-02T08:13:16;10.30;99.90
12268;DHT22;6196;48.398;11.736;2024-03-02T08:15:43;10.20;99.90
12268;DHT22;6196;48.398;11.736;2024-03-02T08:18:09;10.00;99.90
12268;DHT22;6196;48.398;11.736;2024-03-02T08:20:36;9.80;99.90
12268;DHT22;6196;48.398;11.736;2024-03-02T08:23:04;9.80;99.90
12268;DHT22;6196;48.398;11.736;2024-03-02T08:25:31;9.60;99.90
12268;DHT22;6196;48.398;11.736;2024-03-02T08:27:58;9.60;99.90
12268;DHT22;6196;48.398;11.736;2024-03-02T08:30:25;9.90;99.90
12268;DHT22;6196;48.398;11.736;2024-03-02T08:32:52;10.00;99.90
12268;DHT22;6196;48.398;11.736;2024-03-02T08:35:19;10.00;99.90
12268;DHT22;6196;48.398;11.736;2024-03-02T08:37:46;10.00;99.90
12268;DHT22;6196;48.398;11.736;2024-03-02T08:40:14;10.10;99.90
12268;DHT22;6196;48.398;11.736;2024-03-02T08:42:45;10.30;99.90
12268;DHT22;6196;48.398;11.736;2024-03-02T08:45:12;10.20;99.90
12268;DHT22;6196;48.398;11.736;2024-03-02T08:47:39;10.30;99.90
12268;DHT22;6196;48.398;11.736;2024-03-02T08:50:07;10.40;99.90
12268;DHT22;6196;48.398;11.736;2024-03-02T08:52:35;10.30;99.90
12268;DHT22;6196;48.398;11.736;2024-03-02T08:55:02;10.50;99.90
12268;DHT22;6196;48.398;11.736;2024-03-02T08:57:29;10.60;99.90
12268;DHT22;6196;48.398;11.736;2024-03-02T08:59:56;10.50;99.90
12268;DHT22;6196;48.398;11.736;2024-03-02T09:02:24;10.50;99.90
12268;DHT22;6196;48.398;11.736;2024-03-02T09:04:51;10.80;99.90
12268;DHT22;6196;48.398;11.736;2024-03-02T09:07:18;11.60;99.90
12268;DHT22;6196;48.398;11.736;2024-03-02T09:09:45;12.20;99.90
12268;DHT22;6196;48.398;11.736;2024-03-02T09:12:12;13.10;99.90
12268;DHT22;6196;48.398;11.736;2024-03-02T09:14:40;12.90;99.90
12268;DHT22;6196;48.398;11.736;2024-03-02T09:17:07;12.90;99.90
12268;DHT22;6196;48.398;11.736;2024-03-02T09:19:37;12.70;99.90
12268;DHT22;6196;48.398;11.736;2024-03-02T09:22:05;12.60;99.90
12268;DHT22;6196;48.398;11.736;2024-03-02T09:24:32;12.10;99.90
12268;DHT22;6196;48.398;11.736;2024-03-02T09:27:02;11.90;99.90
12268;DHT22;6196;48.398;11.736;2024-03-02T09:29:29;12.20;99.90
12268;DHT22;6196;48.398;11.736;2024-03-02T09:31:56;12.70;99.90
12268;DHT22;6196;48.398;11.736;2024-03-02T09:34:23;12.60;99.90
12268;DHT22;6196;48.398;11.736;2024-03-02T09:36:51;12.30;99.90
12268;DHT22;6196;48.398;11.736;2024-03-02T09:39:19;12.10;99.90
12268;DHT22;6196;48.398;11.736;2024-03-02T09:41:47;12.00;99.90
12268;DHT22;6196;48.398;11.736;2024-03-02T09:44:14;12.00;99.90
12268;DHT22;6196;48.398;11.736;2024-03-02T09:46:41;12.40;99.90
12268;DHT22;6196;48.398;11.736;2024-03-02T09:49:11;12.60;99.90
12268;DHT22;6196;48.398;11.736;2024-03-02T09:51:38;12.70;99.90
12268;DHT22;6196;48.398;11.736;2024-03-02T09:54:07;13.00;99.90
12268;DHT22;6196;48.398;11.736;2024-03-02T09:56:47;13.50;99.90
12268;DHT22;6196;48.398;11.736;2024-03-02T09:59:14;13.40;99.90
12268;DHT22;6196;48.398;11.736;2024-03-02T10:02:01;13.50;99.90
12268;DHT22;6196;48.398;11.736;2024-03-02T10:04:30;14.20;99.90
12268;DHT22;6196;48.398;11.736;2024-03-02T10:07:17;14.50;99.90
12268;DHT22;6196;48.398;11.736;2024-03-02T10:09:46;14.30;99.90
12268;DHT22;6196;48.398;11.736;2024-03-02T10:12:16;13.40;99.90
12268;DHT22;6196;48.398;11.736;2024-03-02T10:14:44;13.50;99.90
12268;DHT22;6196;48.398;11.736;2024-03-02T10:17:12;13.70;99.90
12268;DHT22;6196;48.398;11.736;2024-03-02T10:19:40;13.50;99.90
12268;DHT22;6196;48.398;11.736;2024-03-02T10:22:09;13.10;99.90
12268;DHT22;6196;48.398;11.736;2024-03-02T10:24:42;13.10;99.90
12268;DHT22;6196;48.398;11.736;2024-03-02T10:27:23;13.20;99.90
12268;DHT22;6196;48.398;11.736;2024-03-02T10:29:52;13.30;99.90
12268;DHT22;6196;48.398;11.736;2024-03-02T10:32:22;13.10;99.90
12268;DHT22;6196;48.398;11.736;2024-03-02T10:34:50;12.90;99.90
12268;DHT22;6196;48.398;11.736;2024-03-02T10:37:17;13.10;99.90
12268;DHT22;6196;48.398;11.736;2024-03-02T10:39:46;13.50;99.90
12268;DHT22;6196;48.398;11.736;2024-03-02T10:42:14;13.70;99.90
12268;DHT22;6196;48.398;11.736;2024-03-02T10:44:42;14.00;99.90
12268;DHT22;6196;48.398;11.736;2024-03-02T10:47:12;14.20;99.90
12268;DHT22;6196;48.398;11.736;2024-03-02T10:49:42;14.90;99.90
12268;DHT22;6196;48.398;11.736;2024-03-02T10:52:10;15.40;99.90
12268;DHT22;6196;48.398;11.736;2024-03-02T10:54:37;15.60;99.90
12268;DHT22;6196;48.398;11.736;2024-03-02T10:57:08;15.80;99.90
12268;DHT22;6196;48.398;11.736;2024-03-02T10:59:37;15.60;99.90
12268;DHT22;6196;48.398;11.736;2024-03-02T11:02:17;15.80;99.90
12268;DHT22;6196;48.398;11.736;2024-03-02T11:04:48;15.80;99.90
12268;DHT22;6196;48.398;11.736;2024-03-02T11:07:16;15.50;99.90
12268;DHT22;6196;48.398;11.736;2024-03-02T11:09:57;15.40;99.90
12268;DHT22;6196;48.398;11.736;2024-03-02T11:12:31;15.70;99.90
12268;DHT22;6196;48.398;11.736;2024-03-02T11:15:07;15.70;99.90
12268;DHT22;6196;48.398;11.736;2024-03-02T11:17:38;15.80;99.90
12268;DHT22;6196;48.398;11.736;2024-03-02T11:20:08;16.10;99.90
12268;DHT22;6196;48.398;11.736;2024-03-02T11:22:36;16.20;99.90
12268;DHT22;6196;48.398;11.736;2024-03-02T11:25:03;16.80;99.90
12268;DHT22;6196;48.398;11.736;2024-03-02T11:33:08;16.90;99.90
12268;DHT22;6196;48.398;11.736;2024-03-02T11:35:41;17.60;99.90
12268;DHT22;6196;48.398;11.736;2024-03-02T11:38:15;17.50;99.90
12268;DHT22;6196;48.398;11.736;2024-03-02T11:40:44;17.10;99.90
12268;DHT22;6196;48.398;11.736;2024-03-02T11:43:11;17.20;99.90
12268;DHT22;6196;48.398;11.736;2024-03-02T11:45:43;17.50;99.90
12268;DHT22;6196;48.398;11.736;2024-03-02T11:48:14;18.30;99.90
12268;DHT22;6196;48.398;11.736;2024-03-02T11:50:47;18.50;99.90
12268;DHT22;6196;48.398;11.736;2024-03-02T11:53:14;17.90;99.90
12268;DHT22;6196;48.398;11.736;2024-03-02T11:55:41;17.50;99.90
12268;DHT22;6196;48.398;11.736;2024-03-02T11:58:14;17.60;99.90
12268;DHT22;6196;48.398;11.736;2024-03-02T12:00:44;17.40;99.90
12268;DHT22;6196;48.398;11.736;2024-03-02T12:03:13;17.10;99.90
12268;DHT22;6196;48.398;11.736;2024-03-02T12:05:41;17.10;99.90
12268;DHT22;6196;48.398;11.736;2024-03-02T12:08:08;17.20;99.90
12268;DHT22;6196;48.398;11.736;2024-03-02T12:10:36;17.60;99.90
12268;DHT22;6196;48.398;11.736;2024-03-02T12:13:05;17.80;99.90
12268;DHT22;6196;48.398;11.736;2024-03-02T12:15:35;18.20;99.90
12268;DHT22;6196;48.398;11.736;2024-03-02T12:18:04;18.60;99.90
12268;DHT22;6196;48.398;11.736;2024-03-02T12:20:33;18.20;99.90
12268;DHT22;6196;48.398;11.736;2024-03-02T12:23:02;18.40;99.90
12268;DHT22;6196;48.398;11.736;2024-03-02T12:25:30;18.50;99.90
12268;DHT22;6196;48.398;11.736;2024-03-02T12:28:00;18.60;99.90
12268;DHT22;6196;48.398;11.736;2024-03-02T12:30:30;18.70;99.90
12268;DHT22;6196;48.398;11.736;2024-03-02T12:32:57;18.80;99.90
12268;DHT22;6196;48.398;11.736;2024-03-02T12:35:25;19.20;99.90
12268;DHT22;6196;48.398;11.736;2024-03-02T12:37:53;19.50;99.90
12268;DHT22;6196;48.398;11.736;2024-03-02T12:40:21;19.50;99.90
12268;DHT22;6196;48.398;11.736;2024-03-02T12:42:50;19.90;99.90
12268;DHT22;6196;48.398;11.736;2024-03-02T12:45:17;19.80;99.90
12268;DHT22;6196;48.398;11.736;2024-03-02T12:47:51;20.20;99.90
12268;DHT22;6196;48.398;11.736;2024-03-02T12:50:19;19.90;99.90
12268;DHT22;6196;48.398;11.736;2024-03-02T12:52:53;19.50;99.90
12268;DHT22;6196;48.398;11.736;2024-03-02T12:55:21;19.70;99.90
12268;DHT22;6196;48.398;11.736;2024-03-02T12:57:51;19.00;99.90
12268;DHT22;6196;48.398;11.736;2024-03-02T13:00:19;19.40;99.90
12268;DHT22;6196;48.398;11.736;2024-03-02T13:02:48;20.10;99.90
12268;DHT22;6196;48.398;11.736;2024-03-02T13:05:17;20.20;99.90
12268;DHT22;6196;48.398;11.736;2024-03-02T13:07:46;20.80;99.90
12268;DHT22;6196;48.398;11.736;2024-03-02T13:10:13;21.20;99.90
12268;DHT22;6196;48.398;11.736;2024-03-02T13:12:41;22.00;99.90
12268;DHT22;6196;48.398;11.736;2024-03-02T13:15:08;22.40;99.90
12268;DHT22;6196;48.398;11.736;2024-03-02T13:17:39;22.80;99.90
12268;DHT22;6196;48.398;11.736;2024-03-02T13:20:06;22.50;99.90
12268;DHT22;6196;48.398;11.736;2024-03-02T13:22:37;21.50;99.90
12268;DHT22;6196;48.398;11.736;2024-03-02T13:25:05;21.50;99.90
12268;DHT22;6196;48.398;11.736;2024-03-02T13:27:33;21.30;99.90
12268;DHT22;6196;48.398;11.736;2024-03-02T13:30:02;21.00;99.90
12268;DHT22;6196;48.398;11.736;2024-03-02T13:32:32;21.60;99.90
12268;DHT22;6196;48.398;11.736;2024-03-02T13:34:59;22.40;99.90
12268;DHT22;6196;48.398;11.736;2024-03-02T13:37:27;21.50;99.90
12268;DHT22;6196;48.398;11.736;2024-03-02T13:39:53;21.30;99.90
12268;DHT22;6196;48.398;11.736;2024-03-02T13:42:20;22.30;99.90
12268;DHT22;6196;48.398;11.736;2024-03-02T13:44:48;22.50;99.80
12268;DHT22;6196;48.398;11.736;2024-03-02T13:47:18;22.40;99.60
12268;DHT22;6196;48.398;11.736;2024-03-02T13:49:45;22.40;99.20
12268;DHT22;6196;48.398;11.736;2024-03-02T13:52:14;22.10;98.90
12268;DHT22;6196;48.398;11.736;2024-03-02T13:54:44;21.60;99.40
12268;DHT22;6196;48.398;11.736;2024-03-02T13:57:12;21.80;99.80
12268;DHT22;6196;48.398;11.736;2024-03-02T13:59:41;21.50;99.80
12268;DHT22;6196;48.398;11.736;2024-03-02T14:02:09;21.50;99.90
12268;DHT22;6196;48.398;11.736;2024-03-02T14:04:37;21.50;99.90
12268;DHT22;6196;48.398;11.736;2024-03-02T14:07:05;21.40;99.90
12268;DHT22;6196;48.398;11.736;2024-03-02T14:09:35;21.70;99.90
12268;DHT22;6196;48.398;11.736;2024-03-02T14:12:04;21.60;99.90
12268;DHT22;6196;48.398;11.736;2024-03-02T14:14:32;21.10;99.90
12268;DHT22;6196;48.398;11.736;2024-03-02T14:17:00;21.10;99.90
12268;DHT22;6196;48.398;11.736;2024-03-02T14:19:30;21.90;99.90
12268;DHT22;6196;48.398;11.736;2024-03-02T14:21:58;22.90;99.20
12268;DHT22;6196;48.398;11.736;2024-03-02T14:24:25;24.50;98.00
12268;DHT22;6196;48.398;11.736;2024-03-02T14:26:53;25.80;96.20
12268;DHT22;6196;48.398;11.736;2024-03-02T14:29:28;25.30;95.40
12268;DHT22;6196;48.398;11.736;2024-03-02T14:31:56;25.30;94.90
12268;DHT22;6196;48.398;11.736;2024-03-02T14:34:23;25.30;94.40
12268;DHT22;6196;48.398;11.736;2024-03-02T14:36:50;25.80;93.90
12268;DHT22;6196;48.398;11.736;2024-03-02T14:39:17;25.80;93.60
12268;DHT22;6196;48.398;11.736;2024-03-02T14:41:46;25.70;93.20
12268;DHT22;6196;48.398;11.736;2024-03-02T14:44:12;25.60;93.20
12268;DHT22;6196;48.398;11.736;2024-03-02T14:46:39;24.90;93.30
12268;DHT22;6196;48.398;11.736;2024-03-02T14:49:08;24.30;94.10
12268;DHT22;6196;48.398;11.736;2024-03-02T14:51:35;23.90;94.30
12268;DHT22;6196;48.398;11.736;2024-03-02T14:54:02;23.10;94.40
12268;DHT22;6196;48.398;11.736;2024-03-02T14:56:29;22.20;95.50
12268;DHT22;6196;48.398;11.736;2024-03-02T14:58:56;21.90;96.10
12268;DHT22;6196;48.398;11.736;2024-03-02T15:01:24;21.20;96.10
12268;DHT22;6196;48.398;11.736;2024-03-02T15:03:52;21.30;96.90
12268;DHT22;6196;48.398;11.736;2024-03-02T15:06:19;20.90;96.80
12268;DHT22;6196;48.398;11.736;2024-03-02T15:08:46;21.00;96.80
12268;DHT22;6196;48.398;11.736;2024-03-02T15:11:13;20.80;96.80
12268;DHT22;6196;48.398;11.736;2024-03-02T15:13:41;21.70;96.50
12268;DHT22;6196;48.398;11.736;2024-03-02T15:16:09;22.10;96.10
12268;DHT22;6196;48.398;11.736;2024-03-02T15:18:36;22.20;96.20
12268;DHT22;6196;48.398;11.736;2024-03-02T15:21:03;22.70;95.60
12268;DHT22;6196;48.398;11.736;2024-03-02T15:23:31;22.70;95.80
12268;DHT22;6196;48.398;11.736;2024-03-02T15:25:57;22.70;95.60
12268;DHT22;6196;48.398;11.736;2024-03-02T15:28:24;23.10;95.40
12268;DHT22;6196;48.398;11.736;2024-03-02T15:30:51;22.90;95.50
12268;DHT22;6196;48.398;11.736;2024-03-02T15:33:22;23.50;95.10
12268;DHT22;6196;48.398;11.736;2024-03-02T15:35:56;23.20;95.10
12268;DHT22;6196;48.398;11.736;2024-03-02T15:38:25;22.90;95.60
12268;DHT22;6196;48.398;11.736;2024-03-02T15:41:00;21.70;96.50
12268;DHT22;6196;48.398;11.736;2024-03-02T15:43:28;20.70;97.50
12268;DHT22;6196;48.398;11.736;2024-03-02T15:45:57;19.80;98.60
12268;DHT22;6196;48.398;11.736;2024-03-02T15:48:24;19.20;99.20
12268;DHT22;6196;48.398;11.736;2024-03-02T15:50:51;18.40;99.90